Terminal Aerodrome Forecast
Issued by NWS Upton, NY

Home | Current Version | Previous Version | Text Only | Print | Product List | Glossary On
Versions: 1 2 3 4 5 6 7 8 9 10 11 12 13 14 15 16 17 18 19 20 21 22 23 24 25 26 27 28 29 30 31 32 33 34 35 36 37 38 39 40 41 42 43 44 45 46 47 48 49 50
000
FTUS41 KOKX 190229 AAA
TAFISP
TAF AMD
KISP 190229Z 1902/1924 19015G21KT P6SM SCT150 WS020/21065KT
     FM190900 19014KT P6SM OVC010 WS020/21060KT
     FM191400 19016G22KT P6SM OVC010 WS020/20055KT PROB30 1914/1918
      -SHRA OVC007
     FM191800 18020G28KT 3SM BR OVC010 WS020/20060KT PROB30
      1918/1924 -SHRA OVC007=

USA.gov is the U.S. government's official web portal to all federal, state and local government web resources and services.